sensor_id;sensor_type;location;lat;lon;timestamp;P1;durP1;ratioP1;P2;durP2;ratioP2
47617;SDS011;33336;36.728;-4.414;2024-02-16T00:00:21;13.20;;;1.63;;
47617;SDS011;33336;36.728;-4.414;2024-02-16T00:05:26;9.68;;;1.70;;
47617;SDS011;33336;36.728;-4.414;2024-02-16T00:10:31;10.70;;;2.03;;
47617;SDS011;33336;36.728;-4.414;2024-02-16T00:15:35;10.32;;;1.80;;
47617;SDS011;33336;36.728;-4.414;2024-02-16T00:20:39;11.75;;;2.10;;
47617;SDS011;33336;36.728;-4.414;2024-02-16T00:25:43;8.40;;;2.35;;
47617;SDS011;33336;36.728;-4.414;2024-02-16T00:30:46;5.10;;;1.48;;
47617;SDS011;33336;36.728;-4.414;2024-02-16T00:35:50;8.20;;;1.35;;
47617;SDS011;33336;36.728;-4.414;2024-02-16T00:40:55;5.57;;;1.27;;
47617;SDS011;33336;36.728;-4.414;2024-02-16T00:45:58;7.32;;;1.38;;
47617;SDS011;33336;36.728;-4.414;2024-02-16T00:51:00;11.48;;;1.63;;
47617;SDS011;33336;36.728;-4.414;2024-02-16T00:56:06;7.75;;;1.65;;
47617;SDS011;33336;36.728;-4.414;2024-02-16T01:01:09;11.20;;;2.15;;
47617;SDS011;33336;36.728;-4.414;2024-02-16T01:06:14;5.60;;;1.48;;
47617;SDS011;33336;36.728;-4.414;2024-02-16T01:11:19;8.10;;;1.52;;
47617;SDS011;33336;36.728;-4.414;2024-02-16T01:16:23;8.93;;;1.80;;
47617;SDS011;33336;36.728;-4.414;2024-02-16T01:21:25;7.18;;;1.85;;
47617;SDS011;33336;36.728;-4.414;2024-02-16T01:26:30;9.57;;;1.92;;
47617;SDS011;33336;36.728;-4.414;2024-02-16T01:31:33;9.65;;;1.83;;
47617;SDS011;33336;36.728;-4.414;2024-02-16T01:36:38;5.05;;;1.55;;
47617;SDS011;33336;36.728;-4.414;2024-02-16T01:41:42;12.00;;;1.52;;
47617;SDS011;33336;36.728;-4.414;2024-02-16T01:46:45;7.63;;;1.52;;
47617;SDS011;33336;36.728;-4.414;2024-02-16T01:51:47;10.52;;;1.92;;
47617;SDS011;33336;36.728;-4.414;2024-02-16T01:56:52;9.00;;;1.42;;
47617;SDS011;33336;36.728;-4.414;2024-02-16T02:01:56;7.05;;;1.58;;
47617;SDS011;33336;36.728;-4.414;2024-02-16T02:07:00;13.20;;;2.63;;
47617;SDS011;33336;36.728;-4.414;2024-02-16T02:12:14;12.85;;;1.90;;
47617;SDS011;33336;36.728;-4.414;2024-02-16T02:17:19;14.23;;;2.40;;
47617;SDS011;33336;36.728;-4.414;2024-02-16T02:22:23;8.48;;;1.77;;
47617;SDS011;33336;36.728;-4.414;2024-02-16T02:27:28;7.45;;;1.45;;
47617;SDS011;33336;36.728;-4.414;2024-02-16T02:32:30;5.90;;;1.60;;
47617;SDS011;33336;36.728;-4.414;2024-02-16T02:37:34;7.28;;;2.00;;
47617;SDS011;33336;36.728;-4.414;2024-02-16T02:42:37;7.88;;;1.65;;
47617;SDS011;33336;36.728;-4.414;2024-02-16T02:47:41;8.50;;;1.50;;
47617;SDS011;33336;36.728;-4.414;2024-02-16T02:52:45;7.70;;;1.77;;
47617;SDS011;33336;36.728;-4.414;2024-02-16T02:57:49;7.07;;;1.50;;
47617;SDS011;33336;36.728;-4.414;2024-02-16T03:02:51;9.05;;;1.50;;
47617;SDS011;33336;36.728;-4.414;2024-02-16T03:07:56;7.20;;;1.50;;
47617;SDS011;33336;36.728;-4.414;2024-02-16T03:13:01;8.10;;;1.13;;
47617;SDS011;33336;36.728;-4.414;2024-02-16T03:18:06;6.88;;;1.73;;
47617;SDS011;33336;36.728;-4.414;2024-02-16T03:23:10;10.40;;;1.48;;
47617;SDS011;33336;36.728;-4.414;2024-02-16T03:28:14;10.43;;;2.08;;
47617;SDS011;33336;36.728;-4.414;2024-02-16T03:33:17;6.50;;;1.50;;
47617;SDS011;33336;36.728;-4.414;2024-02-16T03:38:22;5.05;;;1.67;;
47617;SDS011;33336;36.728;-4.414;2024-02-16T03:43:25;7.95;;;1.65;;
47617;SDS011;33336;36.728;-4.414;2024-02-16T03:48:29;7.70;;;2.22;;
47617;SDS011;33336;36.728;-4.414;2024-02-16T03:53:33;10.30;;;1.48;;
47617;SDS011;33336;36.728;-4.414;2024-02-16T03:58:36;6.28;;;1.42;;
47617;SDS011;33336;36.728;-4.414;2024-02-16T04:03:39;5.22;;;1.58;;
47617;SDS011;33336;36.728;-4.414;2024-02-16T04:08:44;12.32;;;1.75;;
47617;SDS011;33336;36.728;-4.414;2024-02-16T04:13:47;6.50;;;1.52;;
47617;SDS011;33336;36.728;-4.414;2024-02-16T04:18:51;5.18;;;1.50;;
47617;SDS011;33336;36.728;-4.414;2024-02-16T04:23:55;9.57;;;2.22;;
47617;SDS011;33336;36.728;-4.414;2024-02-16T04:28:59;10.32;;;1.67;;
47617;SDS011;33336;36.728;-4.414;2024-02-16T04:34:01;6.50;;;1.45;;
47617;SDS011;33336;36.728;-4.414;2024-02-16T04:39:06;7.18;;;1.80;;
47617;SDS011;33336;36.728;-4.414;2024-02-16T04:44:10;8.50;;;1.67;;
47617;SDS011;33336;36.728;-4.414;2024-02-16T04:49:13;8.52;;;2.47;;
47617;SDS011;33336;36.728;-4.414;2024-02-16T04:54:18;11.57;;;2.08;;
47617;SDS011;33336;36.728;-4.414;2024-02-16T04:59:22;8.63;;;1.20;;
47617;SDS011;33336;36.728;-4.414;2024-02-16T05:04:25;9.63;;;2.17;;
47617;SDS011;33336;36.728;-4.414;2024-02-16T05:09:33;8.30;;;1.98;;
47617;SDS011;33336;36.728;-4.414;2024-02-16T05:14:36;7.22;;;1.33;;
47617;SDS011;33336;36.728;-4.414;2024-02-16T05:19:39;12.63;;;1.92;;
47617;SDS011;33336;36.728;-4.414;2024-02-16T05:24:43;6.47;;;1.65;;
47617;SDS011;33336;36.728;-4.414;2024-02-16T05:29:46;7.40;;;1.60;;
47617;SDS011;33336;36.728;-4.414;2024-02-16T05:34:50;7.40;;;2.10;;
47617;SDS011;33336;36.728;-4.414;2024-02-16T05:39:55;9.80;;;1.80;;
47617;SDS011;33336;36.728;-4.414;2024-02-16T05:45:09;10.43;;;1.77;;
47617;SDS011;33336;36.728;-4.414;2024-02-16T05:50:13;8.85;;;1.63;;
47617;SDS011;33336;36.728;-4.414;2024-02-16T05:55:18;8.68;;;2.15;;
47617;SDS011;33336;36.728;-4.414;2024-02-16T06:00:21;8.85;;;2.97;;
47617;SDS011;33336;36.728;-4.414;2024-02-16T06:05:24;8.88;;;2.33;;
47617;SDS011;33336;36.728;-4.414;2024-02-16T06:10:30;6.25;;;1.95;;
47617;SDS011;33336;36.728;-4.414;2024-02-16T06:15:33;8.02;;;2.65;;
47617;SDS011;33336;36.728;-4.414;2024-02-16T06:20:35;9.80;;;1.73;;
47617;SDS011;33336;36.728;-4.414;2024-02-16T06:25:40;9.75;;;1.92;;
47617;SDS011;33336;36.728;-4.414;2024-02-16T06:30:42;8.02;;;2.17;;
47617;SDS011;33336;36.728;-4.414;2024-02-16T06:35:46;13.40;;;2.47;;
47617;SDS011;33336;36.728;-4.414;2024-02-16T06:40:53;14.35;;;1.88;;
47617;SDS011;33336;36.728;-4.414;2024-02-16T06:45:56;8.15;;;2.05;;
47617;SDS011;33336;36.728;-4.414;2024-02-16T06:50:58;13.27;;;1.98;;
47617;SDS011;33336;36.728;-4.414;2024-02-16T06:56:03;8.05;;;1.88;;
47617;SDS011;33336;36.728;-4.414;2024-02-16T07:01:07;8.70;;;1.35;;
47617;SDS011;33336;36.728;-4.414;2024-02-16T07:06:09;11.43;;;1.63;;
47617;SDS011;33336;36.728;-4.414;2024-02-16T07:11:16;10.68;;;1.92;;
47617;SDS011;33336;36.728;-4.414;2024-02-16T07:16:19;8.00;;;2.20;;
47617;SDS011;33336;36.728;-4.414;2024-02-16T07:21:22;8.05;;;2.08;;
47617;SDS011;33336;36.728;-4.414;2024-02-16T07:26:28;9.25;;;2.17;;
47617;SDS011;33336;36.728;-4.414;2024-02-16T07:31:32;9.25;;;1.65;;
47617;SDS011;33336;36.728;-4.414;2024-02-16T07:36:35;9.98;;;1.67;;
47617;SDS011;33336;36.728;-4.414;2024-02-16T07:41:39;12.50;;;1.75;;
47617;SDS011;33336;36.728;-4.414;2024-02-16T07:46:42;6.97;;;1.50;;
47617;SDS011;33336;36.728;-4.414;2024-02-16T07:51:46;18.13;;;3.22;;
47617;SDS011;33336;36.728;-4.414;2024-02-16T07:56:51;10.25;;;1.88;;
47617;SDS011;33336;36.728;-4.414;2024-02-16T08:01:53;15.52;;;2.45;;
47617;SDS011;33336;36.728;-4.414;2024-02-16T08:06:56;10.05;;;2.13;;
47617;SDS011;33336;36.728;-4.414;2024-02-16T08:12:04;8.63;;;2.47;;
47617;SDS011;33336;36.728;-4.414;2024-02-16T08:17:09;10.88;;;2.40;;
47617;SDS011;33336;36.728;-4.414;2024-02-16T08:22:12;10.70;;;2.63;;
47617;SDS011;33336;36.728;-4.414;2024-02-16T08:27:17;12.02;;;2.40;;
47617;SDS011;33336;36.728;-4.414;2024-02-16T08:32:19;7.40;;;2.17;;
47617;SDS011;33336;36.728;-4.414;2024-02-16T08:37:22;7.38;;;2.22;;
47617;SDS011;33336;36.728;-4.414;2024-02-16T08:42:27;8.73;;;1.90;;
47617;SDS011;33336;36.728;-4.414;2024-02-16T08:47:29;10.98;;;1.75;;
47617;SDS011;33336;36.728;-4.414;2024-02-16T08:52:32;6.82;;;1.98;;
47617;SDS011;33336;36.728;-4.414;2024-02-16T08:57:37;8.52;;;2.20;;
47617;SDS011;33336;36.728;-4.414;2024-02-16T09:02:40;5.05;;;1.42;;
47617;SDS011;33336;36.728;-4.414;2024-02-16T09:07:43;9.73;;;1.75;;
47617;SDS011;33336;36.728;-4.414;2024-02-16T09:12:50;10.48;;;1.95;;
47617;SDS011;33336;36.728;-4.414;2024-02-16T09:17:53;11.30;;;2.22;;
47617;SDS011;33336;36.728;-4.414;2024-02-16T09:22:56;7.13;;;2.08;;
47617;SDS011;33336;36.728;-4.414;2024-02-16T09:28:00;7.30;;;2.15;;
47617;SDS011;33336;36.728;-4.414;2024-02-16T09:33:04;10.45;;;2.65;;
47617;SDS011;33336;36.728;-4.414;2024-02-16T09:38:07;10.43;;;2.67;;
47617;SDS011;33336;36.728;-4.414;2024-02-16T09:43:22;6.80;;;1.85;;
47617;SDS011;33336;36.728;-4.414;2024-02-16T09:48:29;4.63;;;1.73;;
47617;SDS011;33336;36.728;-4.414;2024-02-16T09:53:32;5.18;;;1.52;;
47617;SDS011;33336;36.728;-4.414;2024-02-16T09:58:37;9.82;;;2.15;;
47617;SDS011;33336;36.728;-4.414;2024-02-16T10:03:43;9.98;;;1.70;;
47617;SDS011;33336;36.728;-4.414;2024-02-16T10:08:48;6.88;;;2.05;;
47617;SDS011;33336;36.728;-4.414;2024-02-16T10:13:55;9.48;;;3.42;;
47617;SDS011;33336;36.728;-4.414;2024-02-16T10:19:03;6.03;;;2.60;;
47617;SDS011;33336;36.728;-4.414;2024-02-16T10:29:11;9.98;;;2.33;;
47617;SDS011;33336;36.728;-4.414;2024-02-16T10:34:15;5.10;;;1.90;;
47617;SDS011;33336;36.728;-4.414;2024-02-16T10:39:19;7.90;;;2.47;;
47617;SDS011;33336;36.728;-4.414;2024-02-16T10:44:24;6.30;;;2.25;;
47617;SDS011;33336;36.728;-4.414;2024-02-16T10:49:29;5.13;;;2.07;;
47617;SDS011;33336;36.728;-4.414;2024-02-16T10:54:32;4.30;;;1.67;;
47617;SDS011;33336;36.728;-4.414;2024-02-16T10:59:42;5.32;;;3.63;;
47617;SDS011;33336;36.728;-4.414;2024-02-16T11:04:46;11.93;;;2.03;;
47617;SDS011;33336;36.728;-4.414;2024-02-16T11:09:50;6.03;;;1.90;;
47617;SDS011;33336;36.728;-4.414;2024-02-16T11:14:56;10.52;;;2.42;;
47617;SDS011;33336;36.728;-4.414;2024-02-16T11:19:59;8.27;;;2.05;;
47617;SDS011;33336;36.728;-4.414;2024-02-16T11:25:04;3.40;;;1.52;;
47617;SDS011;33336;36.728;-4.414;2024-02-16T11:30:11;4.78;;;2.05;;
47617;SDS011;33336;36.728;-4.414;2024-02-16T11:35:14;6.32;;;2.17;;
47617;SDS011;33336;36.728;-4.414;2024-02-16T11:40:17;10.18;;;1.90;;
47617;SDS011;33336;36.728;-4.414;2024-02-16T11:45:22;5.90;;;1.40;;
47617;SDS011;33336;36.728;-4.414;2024-02-16T11:50:24;9.90;;;1.90;;
47617;SDS011;33336;36.728;-4.414;2024-02-16T11:55:28;5.03;;;1.40;;
47617;SDS011;33336;36.728;-4.414;2024-02-16T12:00:34;4.60;;;1.52;;
47617;SDS011;33336;36.728;-4.414;2024-02-16T12:05:37;5.45;;;1.45;;
47617;SDS011;33336;36.728;-4.414;2024-02-16T12:10:41;3.45;;;1.20;;
47617;SDS011;33336;36.728;-4.414;2024-02-16T12:15:47;3.28;;;1.05;;
47617;SDS011;33336;36.728;-4.414;2024-02-16T12:20:58;3.33;;;1.45;;
47617;SDS011;33336;36.728;-4.414;2024-02-16T12:26:02;6.00;;;1.00;;
47617;SDS011;33336;36.728;-4.414;2024-02-16T12:31:07;4.15;;;1.00;;
47617;SDS011;33336;36.728;-4.414;2024-02-16T12:36:10;3.40;;;1.50;;
47617;SDS011;33336;36.728;-4.414;2024-02-16T12:41:13;2.97;;;1.10;;
47617;SDS011;33336;36.728;-4.414;2024-02-16T12:46:19;4.32;;;1.30;;
47617;SDS011;33336;36.728;-4.414;2024-02-16T12:51:21;1.88;;;0.95;;
47617;SDS011;33336;36.728;-4.414;2024-02-16T12:56:25;7.28;;;1.02;;
47617;SDS011;33336;36.728;-4.414;2024-02-16T13:01:29;2.47;;;0.90;;
47617;SDS011;33336;36.728;-4.414;2024-02-16T13:06:32;2.88;;;1.00;;
47617;SDS011;33336;36.728;-4.414;2024-02-16T13:11:35;4.65;;;1.25;;
47617;SDS011;33336;36.728;-4.414;2024-02-16T13:16:40;3.97;;;1.80;;
47617;SDS011;33336;36.728;-4.414;2024-02-16T13:21:43;6.03;;;2.00;;
47617;SDS011;33336;36.728;-4.414;2024-02-16T13:26:46;7.00;;;2.42;;
47617;SDS011;33336;36.728;-4.414;2024-02-16T13:31:50;3.22;;;1.27;;
47617;SDS011;33336;36.728;-4.414;2024-02-16T13:36:54;6.45;;;1.77;;
47617;SDS011;33336;36.728;-4.414;2024-02-16T13:41:57;4.60;;;1.90;;
47617;SDS011;33336;36.728;-4.414;2024-02-16T13:47:02;4.05;;;1.90;;
47617;SDS011;33336;36.728;-4.414;2024-02-16T13:52:04;5.13;;;1.70;;
47617;SDS011;33336;36.728;-4.414;2024-02-16T13:57:09;4.75;;;1.38;;
47617;SDS011;33336;36.728;-4.414;2024-02-16T14:02:13;3.30;;;1.02;;
47617;SDS011;33336;36.728;-4.414;2024-02-16T14:07:17;2.80;;;1.33;;
47617;SDS011;33336;36.728;-4.414;2024-02-16T14:12:20;4.03;;;1.33;;
47617;SDS011;33336;36.728;-4.414;2024-02-16T14:17:24;4.90;;;1.42;;
47617;SDS011;33336;36.728;-4.414;2024-02-16T14:22:28;6.15;;;1.45;;
47617;SDS011;33336;36.728;-4.414;2024-02-16T14:27:31;5.40;;;2.28;;
47617;SDS011;33336;36.728;-4.414;2024-02-16T14:32:35;2.65;;;1.50;;
47617;SDS011;33336;36.728;-4.414;2024-02-16T14:37:38;2.30;;;1.20;;
47617;SDS011;33336;36.728;-4.414;2024-02-16T14:42:42;2.42;;;0.80;;
47617;SDS011;33336;36.728;-4.414;2024-02-16T14:47:47;5.38;;;1.40;;
47617;SDS011;33336;36.728;-4.414;2024-02-16T14:52:52;3.70;;;0.98;;
47617;SDS011;33336;36.728;-4.414;2024-02-16T14:57:55;3.83;;;1.10;;
47617;SDS011;33336;36.728;-4.414;2024-02-16T15:02:59;4.22;;;1.25;;
47617;SDS011;33336;36.728;-4.414;2024-02-16T15:08:03;2.90;;;1.83;;
47617;SDS011;33336;36.728;-4.414;2024-02-16T15:13:06;8.00;;;1.25;;
47617;SDS011;33336;36.728;-4.414;2024-02-16T15:18:12;6.70;;;1.17;;
47617;SDS011;33336;36.728;-4.414;2024-02-16T15:23:14;2.03;;;0.90;;
47617;SDS011;33336;36.728;-4.414;2024-02-16T15:28:18;5.15;;;1.30;;
47617;SDS011;33336;36.728;-4.414;2024-02-16T15:33:22;5.82;;;1.17;;
47617;SDS011;33336;36.728;-4.414;2024-02-16T15:38:25;2.20;;;1.25;;
47617;SDS011;33336;36.728;-4.414;2024-02-16T15:43:28;2.65;;;1.10;;
47617;SDS011;33336;36.728;-4.414;2024-02-16T15:48:33;3.15;;;1.40;;
47617;SDS011;33336;36.728;-4.414;2024-02-16T15:53:35;5.90;;;1.20;;
47617;SDS011;33336;36.728;-4.414;2024-02-16T15:58:40;3.63;;;1.00;;
47617;SDS011;33336;36.728;-4.414;2024-02-16T16:03:44;4.47;;;1.70;;
47617;SDS011;33336;36.728;-4.414;2024-02-16T16:08:47;4.63;;;0.98;;
47617;SDS011;33336;36.728;-4.414;2024-02-16T16:13:52;5.55;;;1.20;;
47617;SDS011;33336;36.728;-4.414;2024-02-16T16:18:57;3.47;;;0.90;;
47617;SDS011;33336;36.728;-4.414;2024-02-16T16:23:59;5.45;;;1.30;;
47617;SDS011;33336;36.728;-4.414;2024-02-16T16:29:04;4.63;;;1.30;;
47617;SDS011;33336;36.728;-4.414;2024-02-16T16:34:08;3.90;;;1.25;;
47617;SDS011;33336;36.728;-4.414;2024-02-16T16:39:12;2.45;;;0.90;;
47617;SDS011;33336;36.728;-4.414;2024-02-16T16:44:16;4.43;;;1.23;;
47617;SDS011;33336;36.728;-4.414;2024-02-16T16:49:22;2.42;;;0.93;;
47617;SDS011;33336;36.728;-4.414;2024-02-16T16:54:25;6.45;;;1.48;;
47617;SDS011;33336;36.728;-4.414;2024-02-16T16:59:30;3.42;;;1.30;;
47617;SDS011;33336;36.728;-4.414;2024-02-16T17:04:35;2.60;;;1.23;;
47617;SDS011;33336;36.728;-4.414;2024-02-16T17:09:38;6.13;;;1.38;;
47617;SDS011;33336;36.728;-4.414;2024-02-16T17:14:41;3.50;;;1.02;;
47617;SDS011;33336;36.728;-4.414;2024-02-16T17:19:46;5.05;;;1.40;;
47617;SDS011;33336;36.728;-4.414;2024-02-16T17:24:48;5.22;;;1.10;;
47617;SDS011;33336;36.728;-4.414;2024-02-16T17:29:51;5.95;;;1.65;;
47617;SDS011;33336;36.728;-4.414;2024-02-16T17:34:55;6.15;;;1.48;;
47617;SDS011;33336;36.728;-4.414;2024-02-16T17:39:59;4.47;;;1.33;;
47617;SDS011;33336;36.728;-4.414;2024-02-16T17:45:02;4.35;;;1.20;;
47617;SDS011;33336;36.728;-4.414;2024-02-16T17:50:10;4.63;;;1.38;;
47617;SDS011;33336;36.728;-4.414;2024-02-16T17:55:13;5.72;;;1.15;;
47617;SDS011;33336;36.728;-4.414;2024-02-16T18:00:17;4.75;;;1.20;;
47617;SDS011;33336;36.728;-4.414;2024-02-16T18:05:22;7.15;;;1.75;;
47617;SDS011;33336;36.728;-4.414;2024-02-16T18:10:25;4.07;;;1.10;;
47617;SDS011;33336;36.728;-4.414;2024-02-16T18:15:28;4.68;;;1.40;;
47617;SDS011;33336;36.728;-4.414;2024-02-16T18:20:34;10.57;;;1.80;;
47617;SDS011;33336;36.728;-4.414;2024-02-16T18:25:36;3.83;;;1.58;;
47617;SDS011;33336;36.728;-4.414;2024-02-16T18:30:40;4.00;;;1.10;;
47617;SDS011;33336;36.728;-4.414;2024-02-16T18:35:44;4.10;;;1.15;;
47617;SDS011;33336;36.728;-4.414;2024-02-16T18:40:47;6.78;;;1.70;;
47617;SDS011;33336;36.728;-4.414;2024-02-16T18:45:50;5.72;;;1.30;;
47617;SDS011;33336;36.728;-4.414;2024-02-16T18:50:55;4.50;;;1.90;;
47617;SDS011;33336;36.728;-4.414;2024-02-16T18:55:57;10.02;;;3.05;;
47617;SDS011;33336;36.728;-4.414;2024-02-16T19:01:00;8.45;;;3.38;;
47617;SDS011;33336;36.728;-4.414;2024-02-16T19:06:04;6.28;;;2.13;;
47617;SDS011;33336;36.728;-4.414;2024-02-16T19:11:08;3.95;;;1.10;;
47617;SDS011;33336;36.728;-4.414;2024-02-16T19:16:11;6.00;;;1.67;;
47617;SDS011;33336;36.728;-4.414;2024-02-16T19:21:15;6.35;;;1.60;;
47617;SDS011;33336;36.728;-4.414;2024-02-16T19:26:18;5.28;;;1.80;;
47617;SDS011;33336;36.728;-4.414;2024-02-16T19:31:22;7.90;;;2.38;;
47617;SDS011;33336;36.728;-4.414;2024-02-16T19:36:27;3.42;;;1.33;;
47617;SDS011;33336;36.728;-4.414;2024-02-16T19:41:29;6.05;;;1.85;;
47617;SDS011;33336;36.728;-4.414;2024-02-16T19:46:32;3.15;;;1.63;;
47617;SDS011;33336;36.728;-4.414;2024-02-16T19:51:36;3.88;;;1.55;;
47617;SDS011;33336;36.728;-4.414;2024-02-16T19:56:39;5.07;;;2.33;;
47617;SDS011;33336;36.728;-4.414;2024-02-16T20:01:43;5.78;;;2.50;;
47617;SDS011;33336;36.728;-4.414;2024-02-16T20:06:48;4.88;;;2.58;;
47617;SDS011;33336;36.728;-4.414;2024-02-16T20:11:51;7.70;;;2.30;;
47617;SDS011;33336;36.728;-4.414;2024-02-16T20:16:54;6.00;;;2.50;;
47617;SDS011;33336;36.728;-4.414;2024-02-16T20:21:59;7.32;;;2.95;;
47617;SDS011;33336;36.728;-4.414;2024-02-16T20:27:02;7.05;;;1.77;;
47617;SDS011;33336;36.728;-4.414;2024-02-16T20:32:06;3.33;;;1.48;;
47617;SDS011;33336;36.728;-4.414;2024-02-16T20:37:10;4.05;;;1.50;;
47617;SDS011;33336;36.728;-4.414;2024-02-16T20:42:13;3.95;;;2.15;;
47617;SDS011;33336;36.728;-4.414;2024-02-16T20:47:20;10.05;;;2.40;;
47617;SDS011;33336;36.728;-4.414;2024-02-16T20:52:26;4.72;;;2.28;;
47617;SDS011;33336;36.728;-4.414;2024-02-16T20:57:28;5.10;;;2.03;;
47617;SDS011;33336;36.728;-4.414;2024-02-16T21:02:32;8.75;;;2.25;;
47617;SDS011;33336;36.728;-4.414;2024-02-16T21:07:37;7.38;;;1.88;;
47617;SDS011;33336;36.728;-4.414;2024-02-16T21:12:41;7.38;;;2.17;;
47617;SDS011;33336;36.728;-4.414;2024-02-16T21:17:45;11.20;;;2.40;;
47617;SDS011;33336;36.728;-4.414;2024-02-16T21:22:51;6.47;;;2.20;;
47617;SDS011;33336;36.728;-4.414;2024-02-16T21:27:54;4.40;;;2.00;;
47617;SDS011;33336;36.728;-4.414;2024-02-16T21:32:58;6.95;;;2.60;;
47617;SDS011;33336;36.728;-4.414;2024-02-16T21:38:05;6.32;;;2.90;;
47617;SDS011;33336;36.728;-4.414;2024-02-16T21:43:08;6.95;;;2.47;;
47617;SDS011;33336;36.728;-4.414;2024-02-16T21:48:10;5.82;;;2.35;;
47617;SDS011;33336;36.728;-4.414;2024-02-16T21:53:15;8.35;;;2.60;;
47617;SDS011;33336;36.728;-4.414;2024-02-16T21:58:18;4.22;;;2.30;;
47617;SDS011;33336;36.728;-4.414;2024-02-16T22:03:22;8.15;;;2.58;;
47617;SDS011;33336;36.728;-4.414;2024-02-16T22:08:29;11.00;;;3.55;;
47617;SDS011;33336;36.728;-4.414;2024-02-16T22:13:32;5.78;;;2.35;;
47617;SDS011;33336;36.728;-4.414;2024-02-16T22:18:35;6.55;;;3.03;;
47617;SDS011;33336;36.728;-4.414;2024-02-16T22:23:42;10.88;;;3.15;;
47617;SDS011;33336;36.728;-4.414;2024-02-16T22:28:45;5.13;;;1.70;;
47617;SDS011;33336;36.728;-4.414;2024-02-16T22:33:49;6.13;;;2.03;;
47617;SDS011;33336;36.728;-4.414;2024-02-16T22:38:53;9.00;;;2.28;;
47617;SDS011;33336;36.728;-4.414;2024-02-16T22:43:57;4.60;;;2.10;;
47617;SDS011;33336;36.728;-4.414;2024-02-16T22:49:00;4.05;;;1.77;;
47617;SDS011;33336;36.728;-4.414;2024-02-16T22:54:06;10.10;;;2.05;;
47617;SDS011;33336;36.728;-4.414;2024-02-16T22:59:09;4.88;;;1.90;;
47617;SDS011;33336;36.728;-4.414;2024-02-16T23:04:13;9.23;;;2.72;;
47617;SDS011;33336;36.728;-4.414;2024-02-16T23:09:17;7.90;;;3.22;;
47617;SDS011;33336;36.728;-4.414;2024-02-16T23:14:22;8.57;;;2.90;;
47617;SDS011;33336;36.728;-4.414;2024-02-16T23:19:26;6.97;;;2.80;;
47617;SDS011;33336;36.728;-4.414;2024-02-16T23:24:32;6.40;;;3.00;;
47617;SDS011;33336;36.728;-4.414;2024-02-16T23:29:35;9.63;;;3.53;;
47617;SDS011;33336;36.728;-4.414;2024-02-16T23:34:38;7.45;;;2.92;;
47617;SDS011;33336;36.728;-4.414;2024-02-16T23:39:42;8.55;;;2.20;;
47617;SDS011;33336;36.728;-4.414;2024-02-16T23:44:46;6.28;;;2.85;;
47617;SDS011;33336;36.728;-4.414;2024-02-16T23:49:49;5.45;;;2.17;;
47617;SDS011;33336;36.728;-4.414;2024-02-16T23:54:55;7.97;;;2.55;;
47617;SDS011;33336;36.728;-4.414;2024-02-16T23:59:58;8.85;;;2.22;;
